sensor_id;sensor_type;location;lat;lon;timestamp;P1;durP1;ratioP1;P2;durP2;ratioP2
58808;SDS011;44579;51.672;7.834;2022-10-22T00:00:50;10.15;;;4.55;;
58808;SDS011;44579;51.672;7.834;2022-10-22T00:05:46;8.93;;;4.60;;
58808;SDS011;44579;51.672;7.834;2022-10-22T00:08:13;10.15;;;4.68;;
58808;SDS011;44579;51.672;7.834;2022-10-22T00:10:43;9.40;;;5.03;;
58808;SDS011;44579;51.672;7.834;2022-10-22T00:13:10;9.25;;;4.70;;
58808;SDS011;44579;51.672;7.834;2022-10-22T00:15:41;8.32;;;4.22;;
58808;SDS011;44579;51.672;7.834;2022-10-22T00:18:09;9.98;;;5.90;;
58808;SDS011;44579;51.672;7.834;2022-10-22T00:20:36;8.70;;;4.65;;
58808;SDS011;44579;51.672;7.834;2022-10-22T00:23:03;12.38;;;4.97;;
58808;SDS011;44579;51.672;7.834;2022-10-22T00:25:32;8.35;;;4.80;;
58808;SDS011;44579;51.672;7.834;2022-10-22T00:28:01;9.23;;;4.80;;
58808;SDS011;44579;51.672;7.834;2022-10-22T00:30:31;9.75;;;5.13;;
58808;SDS011;44579;51.672;7.834;2022-10-22T00:35:26;7.32;;;4.03;;
58808;SDS011;44579;51.672;7.834;2022-10-22T00:37:54;7.65;;;4.45;;
58808;SDS011;44579;51.672;7.834;2022-10-22T00:40:21;10.88;;;5.00;;
58808;SDS011;44579;51.672;7.834;2022-10-22T00:42:52;11.05;;;5.18;;
58808;SDS011;44579;51.672;7.834;2022-10-22T00:45:23;7.47;;;4.97;;
58808;SDS011;44579;51.672;7.834;2022-10-22T00:47:58;11.60;;;5.90;;
58808;SDS011;44579;51.672;7.834;2022-10-22T00:50:28;9.73;;;6.13;;
58808;SDS011;44579;51.672;7.834;2022-10-22T00:53:29;12.98;;;6.10;;
58808;SDS011;44579;51.672;7.834;2022-10-22T00:55:57;17.92;;;6.43;;
58808;SDS011;44579;51.672;7.834;2022-10-22T00:58:26;8.90;;;5.07;;
58808;SDS011;44579;51.672;7.834;2022-10-22T01:00:58;10.75;;;5.28;;
58808;SDS011;44579;51.672;7.834;2022-10-22T01:03:26;11.98;;;5.45;;
58808;SDS011;44579;51.672;7.834;2022-10-22T01:05:57;11.23;;;5.72;;
58808;SDS011;44579;51.672;7.834;2022-10-22T01:08:43;10.45;;;5.68;;
58808;SDS011;44579;51.672;7.834;2022-10-22T01:11:42;10.70;;;6.60;;
58808;SDS011;44579;51.672;7.834;2022-10-22T01:16:47;12.48;;;5.25;;
58808;SDS011;44579;51.672;7.834;2022-10-22T01:20:02;11.75;;;5.93;;
58808;SDS011;44579;51.672;7.834;2022-10-22T01:22:16;8.80;;;5.03;;
58808;SDS011;44579;51.672;7.834;2022-10-22T01:25:04;11.88;;;6.45;;
58808;SDS011;44579;51.672;7.834;2022-10-22T01:30:23;10.93;;;5.70;;
58808;SDS011;44579;51.672;7.834;2022-10-22T01:32:52;11.00;;;6.38;;
58808;SDS011;44579;51.672;7.834;2022-10-22T01:35:24;11.90;;;6.72;;
58808;SDS011;44579;51.672;7.834;2022-10-22T01:37:57;23.35;;;6.10;;
58808;SDS011;44579;51.672;7.834;2022-10-22T01:40:31;11.85;;;5.40;;
58808;SDS011;44579;51.672;7.834;2022-10-22T01:43:09;12.73;;;6.00;;
58808;SDS011;44579;51.672;7.834;2022-10-22T01:45:50;9.02;;;4.90;;
58808;SDS011;44579;51.672;7.834;2022-10-22T02:02:41;10.52;;;5.78;;
58808;SDS011;44579;51.672;7.834;2022-10-22T02:05:12;15.20;;;6.80;;
58808;SDS011;44579;51.672;7.834;2022-10-22T02:07:54;12.82;;;6.43;;
58808;SDS011;44579;51.672;7.834;2022-10-22T02:10:29;12.27;;;5.40;;
58808;SDS011;44579;51.672;7.834;2022-10-22T02:12:56;15.20;;;6.35;;
58808;SDS011;44579;51.672;7.834;2022-10-22T02:15:26;11.68;;;5.65;;
58808;SDS011;44579;51.672;7.834;2022-10-22T02:17:57;9.43;;;5.55;;
58808;SDS011;44579;51.672;7.834;2022-10-22T02:20:28;14.48;;;5.60;;
58808;SDS011;44579;51.672;7.834;2022-10-22T02:22:58;9.15;;;5.80;;
58808;SDS011;44579;51.672;7.834;2022-10-22T02:25:28;12.43;;;5.20;;
58808;SDS011;44579;51.672;7.834;2022-10-22T02:28:22;8.35;;;5.47;;
58808;SDS011;44579;51.672;7.834;2022-10-22T02:31:07;8.27;;;5.38;;
58808;SDS011;44579;51.672;7.834;2022-10-22T02:33:44;9.32;;;5.15;;
58808;SDS011;44579;51.672;7.834;2022-10-22T02:36:15;7.82;;;4.75;;
58808;SDS011;44579;51.672;7.834;2022-10-22T02:38:44;9.80;;;5.28;;
58808;SDS011;44579;51.672;7.834;2022-10-22T02:41:16;9.77;;;5.35;;
58808;SDS011;44579;51.672;7.834;2022-10-22T02:43:52;16.63;;;5.38;;
58808;SDS011;44579;51.672;7.834;2022-10-22T02:46:20;10.18;;;4.72;;
58808;SDS011;44579;51.672;7.834;2022-10-22T02:51:15;9.20;;;4.90;;
58808;SDS011;44579;51.672;7.834;2022-10-22T02:53:42;9.43;;;5.28;;
58808;SDS011;44579;51.672;7.834;2022-10-22T02:56:10;17.77;;;4.53;;
58808;SDS011;44579;51.672;7.834;2022-10-22T02:58:38;9.93;;;4.43;;
58808;SDS011;44579;51.672;7.834;2022-10-22T03:01:05;7.63;;;4.32;;
58808;SDS011;44579;51.672;7.834;2022-10-22T03:03:41;9.30;;;4.90;;
58808;SDS011;44579;51.672;7.834;2022-10-22T03:06:08;9.07;;;4.78;;
58808;SDS011;44579;51.672;7.834;2022-10-22T03:08:35;8.48;;;4.70;;
58808;SDS011;44579;51.672;7.834;2022-10-22T03:11:03;8.43;;;4.97;;
58808;SDS011;44579;51.672;7.834;2022-10-22T03:13:30;11.73;;;4.97;;
58808;SDS011;44579;51.672;7.834;2022-10-22T03:15:57;12.23;;;5.20;;
58808;SDS011;44579;51.672;7.834;2022-10-22T03:18:24;8.05;;;4.38;;
58808;SDS011;44579;51.672;7.834;2022-10-22T03:21:19;6.70;;;4.22;;
58808;SDS011;44579;51.672;7.834;2022-10-22T03:23:53;10.18;;;5.57;;
58808;SDS011;44579;51.672;7.834;2022-10-22T03:26:21;9.57;;;4.95;;
58808;SDS011;44579;51.672;7.834;2022-10-22T03:28:49;10.82;;;4.93;;
58808;SDS011;44579;51.672;7.834;2022-10-22T03:33:44;13.68;;;4.97;;
58808;SDS011;44579;51.672;7.834;2022-10-22T03:36:14;10.68;;;4.60;;
58808;SDS011;44579;51.672;7.834;2022-10-22T03:38:41;8.82;;;4.63;;
58808;SDS011;44579;51.672;7.834;2022-10-22T03:41:09;14.45;;;4.32;;
58808;SDS011;44579;51.672;7.834;2022-10-22T03:43:37;6.18;;;4.05;;
58808;SDS011;44579;51.672;7.834;2022-10-22T03:46:06;8.95;;;4.93;;
58808;SDS011;44579;51.672;7.834;2022-10-22T03:48:33;8.40;;;4.82;;
58808;SDS011;44579;51.672;7.834;2022-10-22T03:51:00;5.88;;;3.90;;
58808;SDS011;44579;51.672;7.834;2022-10-22T03:53:27;10.27;;;5.35;;
58808;SDS011;44579;51.672;7.834;2022-10-22T03:55:55;7.05;;;4.10;;
58808;SDS011;44579;51.672;7.834;2022-10-22T03:58:22;8.00;;;4.30;;
58808;SDS011;44579;51.672;7.834;2022-10-22T04:00:49;6.20;;;4.18;;
58808;SDS011;44579;51.672;7.834;2022-10-22T04:03:19;7.82;;;4.32;;
58808;SDS011;44579;51.672;7.834;2022-10-22T04:05:46;7.57;;;4.30;;
58808;SDS011;44579;51.672;7.834;2022-10-22T04:08:14;7.50;;;3.88;;
58808;SDS011;44579;51.672;7.834;2022-10-22T04:13:16;11.20;;;4.78;;
58808;SDS011;44579;51.672;7.834;2022-10-22T04:15:43;5.90;;;3.85;;
58808;SDS011;44579;51.672;7.834;2022-10-22T04:18:10;13.82;;;5.07;;
58808;SDS011;44579;51.672;7.834;2022-10-22T04:20:37;8.13;;;3.67;;
58808;SDS011;44579;51.672;7.834;2022-10-22T04:23:07;12.73;;;4.18;;
58808;SDS011;44579;51.672;7.834;2022-10-22T04:25:33;6.93;;;4.50;;
58808;SDS011;44579;51.672;7.834;2022-10-22T04:28:00;7.47;;;4.20;;
58808;SDS011;44579;51.672;7.834;2022-10-22T04:30:27;11.57;;;4.30;;
58808;SDS011;44579;51.672;7.834;2022-10-22T04:32:54;6.93;;;4.10;;
58808;SDS011;44579;51.672;7.834;2022-10-22T04:35:20;6.45;;;3.55;;
58808;SDS011;44579;51.672;7.834;2022-10-22T04:37:48;7.57;;;4.60;;
58808;SDS011;44579;51.672;7.834;2022-10-22T04:40:15;7.07;;;4.60;;
58808;SDS011;44579;51.672;7.834;2022-10-22T04:42:41;6.47;;;4.65;;
58808;SDS011;44579;51.672;7.834;2022-10-22T04:45:09;13.27;;;4.60;;
58808;SDS011;44579;51.672;7.834;2022-10-22T04:47:36;9.55;;;3.80;;
58808;SDS011;44579;51.672;7.834;2022-10-22T04:50:04;5.70;;;4.03;;
58808;SDS011;44579;51.672;7.834;2022-10-22T04:52:31;7.38;;;3.28;;
58808;SDS011;44579;51.672;7.834;2022-10-22T04:54:58;5.00;;;3.38;;
58808;SDS011;44579;51.672;7.834;2022-10-22T04:57:28;5.68;;;3.75;;
58808;SDS011;44579;51.672;7.834;2022-10-22T04:59:56;7.07;;;3.45;;
58808;SDS011;44579;51.672;7.834;2022-10-22T05:02:23;9.63;;;4.77;;
58808;SDS011;44579;51.672;7.834;2022-10-22T05:04:50;5.45;;;3.50;;
58808;SDS011;44579;51.672;7.834;2022-10-22T05:07:17;6.22;;;3.88;;
58808;SDS011;44579;51.672;7.834;2022-10-22T05:09:44;6.97;;;3.58;;
58808;SDS011;44579;51.672;7.834;2022-10-22T05:12:10;8.18;;;3.42;;
58808;SDS011;44579;51.672;7.834;2022-10-22T05:14:37;6.18;;;3.50;;
58808;SDS011;44579;51.672;7.834;2022-10-22T05:17:10;5.00;;;2.97;;
58808;SDS011;44579;51.672;7.834;2022-10-22T05:19:37;7.80;;;3.40;;
58808;SDS011;44579;51.672;7.834;2022-10-22T05:22:04;6.60;;;3.50;;
58808;SDS011;44579;51.672;7.834;2022-10-22T05:24:32;4.85;;;3.25;;
58808;SDS011;44579;51.672;7.834;2022-10-22T05:27:00;12.13;;;3.78;;
58808;SDS011;44579;51.672;7.834;2022-10-22T05:29:27;5.35;;;3.47;;
58808;SDS011;44579;51.672;7.834;2022-10-22T05:31:54;7.23;;;3.67;;
58808;SDS011;44579;51.672;7.834;2022-10-22T05:34:21;7.93;;;4.07;;
58808;SDS011;44579;51.672;7.834;2022-10-22T05:36:48;6.85;;;3.67;;
58808;SDS011;44579;51.672;7.834;2022-10-22T05:39:15;4.97;;;3.40;;
58808;SDS011;44579;51.672;7.834;2022-10-22T05:41:41;6.10;;;3.97;;
58808;SDS011;44579;51.672;7.834;2022-10-22T05:44:09;5.47;;;3.40;;
58808;SDS011;44579;51.672;7.834;2022-10-22T05:46:38;9.40;;;3.35;;
58808;SDS011;44579;51.672;7.834;2022-10-22T05:49:05;3.90;;;2.72;;
58808;SDS011;44579;51.672;7.834;2022-10-22T05:51:34;9.90;;;3.95;;
58808;SDS011;44579;51.672;7.834;2022-10-22T05:54:03;8.88;;;3.10;;
58808;SDS011;44579;51.672;7.834;2022-10-22T05:56:33;7.82;;;3.92;;
58808;SDS011;44579;51.672;7.834;2022-10-22T05:59:00;8.77;;;4.63;;
58808;SDS011;44579;51.672;7.834;2022-10-22T06:01:31;7.85;;;3.45;;
58808;SDS011;44579;51.672;7.834;2022-10-22T06:04:01;10.02;;;3.95;;
58808;SDS011;44579;51.672;7.834;2022-10-22T06:06:31;6.50;;;3.55;;
58808;SDS011;44579;51.672;7.834;2022-10-22T06:09:09;5.50;;;3.60;;
58808;SDS011;44579;51.672;7.834;2022-10-22T06:11:36;11.85;;;3.75;;
58808;SDS011;44579;51.672;7.834;2022-10-22T06:14:08;10.00;;;4.13;;
58808;SDS011;44579;51.672;7.834;2022-10-22T06:16:36;12.77;;;3.92;;
58808;SDS011;44579;51.672;7.834;2022-10-22T06:19:03;10.18;;;3.60;;
58808;SDS011;44579;51.672;7.834;2022-10-22T06:21:31;10.05;;;3.95;;
58808;SDS011;44579;51.672;7.834;2022-10-22T06:24:01;5.40;;;3.33;;
58808;SDS011;44579;51.672;7.834;2022-10-22T06:26:28;9.07;;;4.18;;
58808;SDS011;44579;51.672;7.834;2022-10-22T06:29:01;8.07;;;3.72;;
58808;SDS011;44579;51.672;7.834;2022-10-22T06:31:28;8.13;;;4.57;;
58808;SDS011;44579;51.672;7.834;2022-10-22T06:34:05;12.13;;;3.70;;
58808;SDS011;44579;51.672;7.834;2022-10-22T06:36:36;7.40;;;4.28;;
58808;SDS011;44579;51.672;7.834;2022-10-22T06:39:06;8.18;;;4.40;;
58808;SDS011;44579;51.672;7.834;2022-10-22T06:41:36;11.68;;;4.22;;
58808;SDS011;44579;51.672;7.834;2022-10-22T06:44:03;5.22;;;3.92;;
58808;SDS011;44579;51.672;7.834;2022-10-22T06:46:33;13.07;;;4.90;;
58808;SDS011;44579;51.672;7.834;2022-10-22T06:49:01;9.95;;;3.88;;
58808;SDS011;44579;51.672;7.834;2022-10-22T06:51:31;9.77;;;4.10;;
58808;SDS011;44579;51.672;7.834;2022-10-22T06:54:00;6.63;;;3.53;;
58808;SDS011;44579;51.672;7.834;2022-10-22T06:56:27;6.43;;;3.57;;
58808;SDS011;44579;51.672;7.834;2022-10-22T06:58:57;7.93;;;4.55;;
58808;SDS011;44579;51.672;7.834;2022-10-22T07:01:29;7.03;;;3.40;;
58808;SDS011;44579;51.672;7.834;2022-10-22T07:03:58;5.60;;;4.05;;
58808;SDS011;44579;51.672;7.834;2022-10-22T07:06:26;6.57;;;3.92;;
58808;SDS011;44579;51.672;7.834;2022-10-22T07:08:55;5.18;;;3.70;;
58808;SDS011;44579;51.672;7.834;2022-10-22T07:11:24;7.45;;;3.90;;
58808;SDS011;44579;51.672;7.834;2022-10-22T07:13:56;7.15;;;4.15;;
58808;SDS011;44579;51.672;7.834;2022-10-22T07:16:25;6.60;;;3.95;;
58808;SDS011;44579;51.672;7.834;2022-10-22T07:18:56;11.30;;;4.65;;
58808;SDS011;44579;51.672;7.834;2022-10-22T07:21:23;9.75;;;4.20;;
58808;SDS011;44579;51.672;7.834;2022-10-22T07:23:51;14.70;;;5.50;;
58808;SDS011;44579;51.672;7.834;2022-10-22T07:26:18;11.52;;;4.47;;
58808;SDS011;44579;51.672;7.834;2022-10-22T07:28:46;11.65;;;4.07;;
58808;SDS011;44579;51.672;7.834;2022-10-22T07:33:40;16.08;;;5.05;;
58808;SDS011;44579;51.672;7.834;2022-10-22T07:36:09;16.88;;;4.97;;
58808;SDS011;44579;51.672;7.834;2022-10-22T07:38:43;8.73;;;5.00;;
58808;SDS011;44579;51.672;7.834;2022-10-22T07:41:12;14.48;;;5.05;;
58808;SDS011;44579;51.672;7.834;2022-10-22T07:43:40;9.02;;;4.57;;
58808;SDS011;44579;51.672;7.834;2022-10-22T07:46:08;11.02;;;5.25;;
58808;SDS011;44579;51.672;7.834;2022-10-22T07:48:35;11.35;;;5.15;;
58808;SDS011;44579;51.672;7.834;2022-10-22T07:53:29;10.93;;;3.42;;
58808;SDS011;44579;51.672;7.834;2022-10-22T07:55:56;7.00;;;4.43;;
58808;SDS011;44579;51.672;7.834;2022-10-22T07:58:23;9.70;;;5.10;;
58808;SDS011;44579;51.672;7.834;2022-10-22T08:00:53;10.90;;;4.28;;
58808;SDS011;44579;51.672;7.834;2022-10-22T08:03:21;5.85;;;3.22;;
58808;SDS011;44579;51.672;7.834;2022-10-22T08:05:50;9.20;;;3.95;;
58808;SDS011;44579;51.672;7.834;2022-10-22T08:08:19;8.65;;;3.42;;
58808;SDS011;44579;51.672;7.834;2022-10-22T08:10:46;11.25;;;2.83;;
58808;SDS011;44579;51.672;7.834;2022-10-22T08:13:14;13.95;;;3.65;;
58808;SDS011;44579;51.672;7.834;2022-10-22T08:15:42;3.40;;;2.08;;
58808;SDS011;44579;51.672;7.834;2022-10-22T08:18:10;7.32;;;2.67;;
58808;SDS011;44579;51.672;7.834;2022-10-22T08:20:37;12.57;;;3.13;;
58808;SDS011;44579;51.672;7.834;2022-10-22T08:23:04;7.55;;;2.60;;
58808;SDS011;44579;51.672;7.834;2022-10-22T08:25:31;7.43;;;2.47;;
58808;SDS011;44579;51.672;7.834;2022-10-22T08:27:59;4.95;;;2.28;;
58808;SDS011;44579;51.672;7.834;2022-10-22T08:30:26;4.15;;;2.30;;
58808;SDS011;44579;51.672;7.834;2022-10-22T08:32:55;4.40;;;2.10;;
58808;SDS011;44579;51.672;7.834;2022-10-22T08:35:22;6.13;;;3.25;;
58808;SDS011;44579;51.672;7.834;2022-10-22T08:37:49;9.25;;;2.75;;
58808;SDS011;44579;51.672;7.834;2022-10-22T08:40:50;6.80;;;2.45;;
58808;SDS011;44579;51.672;7.834;2022-10-22T08:46:08;10.48;;;2.80;;
58808;SDS011;44579;51.672;7.834;2022-10-22T08:48:44;16.23;;;2.53;;
58808;SDS011;44579;51.672;7.834;2022-10-22T08:51:16;8.07;;;2.33;;
58808;SDS011;44579;51.672;7.834;2022-10-22T08:56:34;5.90;;;2.90;;
58808;SDS011;44579;51.672;7.834;2022-10-22T08:59:13;6.88;;;2.40;;
58808;SDS011;44579;51.672;7.834;2022-10-22T09:01:48;7.07;;;1.98;;
58808;SDS011;44579;51.672;7.834;2022-10-22T09:06:59;3.22;;;2.10;;
58808;SDS011;44579;51.672;7.834;2022-10-22T09:09:26;3.70;;;2.00;;
58808;SDS011;44579;51.672;7.834;2022-10-22T09:12:00;5.43;;;2.33;;
58808;SDS011;44579;51.672;7.834;2022-10-22T09:14:31;9.88;;;2.28;;
58808;SDS011;44579;51.672;7.834;2022-10-22T09:17:10;5.43;;;1.60;;
58808;SDS011;44579;51.672;7.834;2022-10-22T09:20:27;16.00;;;1.60;;
58808;SDS011;44579;51.672;7.834;2022-10-22T09:23:01;2.78;;;1.58;;
58808;SDS011;44579;51.672;7.834;2022-10-22T09:25:42;6.53;;;1.85;;
58808;SDS011;44579;51.672;7.834;2022-10-22T09:28:13;4.25;;;1.73;;
58808;SDS011;44579;51.672;7.834;2022-10-22T09:30:40;3.78;;;1.23;;
58808;SDS011;44579;51.672;7.834;2022-10-22T09:35:46;4.97;;;1.20;;
58808;SDS011;44579;51.672;7.834;2022-10-22T09:38:25;7.65;;;2.50;;
58808;SDS011;44579;51.672;7.834;2022-10-22T09:40:55;6.47;;;1.85;;
58808;SDS011;44579;51.672;7.834;2022-10-22T09:43:23;4.93;;;1.52;;
58808;SDS011;44579;51.672;7.834;2022-10-22T09:46:00;3.63;;;1.42;;
58808;SDS011;44579;51.672;7.834;2022-10-22T09:48:40;3.35;;;1.38;;
58808;SDS011;44579;51.672;7.834;2022-10-22T09:51:19;13.52;;;1.83;;
58808;SDS011;44579;51.672;7.834;2022-10-22T09:53:55;5.57;;;1.67;;
58808;SDS011;44579;51.672;7.834;2022-10-22T09:56:24;2.90;;;1.08;;
58808;SDS011;44579;51.672;7.834;2022-10-22T09:58:54;3.67;;;1.13;;
58808;SDS011;44579;51.672;7.834;2022-10-22T10:01:24;4.70;;;0.75;;
58808;SDS011;44579;51.672;7.834;2022-10-22T10:04:05;9.48;;;1.88;;
58808;SDS011;44579;51.672;7.834;2022-10-22T10:06:39;2.63;;;1.40;;
58808;SDS011;44579;51.672;7.834;2022-10-22T10:09:19;3.38;;;1.63;;
58808;SDS011;44579;51.672;7.834;2022-10-22T10:11:58;1.98;;;1.35;;
58808;SDS011;44579;51.672;7.834;2022-10-22T10:14:31;5.15;;;1.92;;
58808;SDS011;44579;51.672;7.834;2022-10-22T10:28:03;4.82;;;2.08;;
58808;SDS011;44579;51.672;7.834;2022-10-22T10:30:52;4.93;;;2.17;;
58808;SDS011;44579;51.672;7.834;2022-10-22T10:39:52;7.47;;;2.10;;
58808;SDS011;44579;51.672;7.834;2022-10-22T10:42:40;4.50;;;1.70;;
58808;SDS011;44579;51.672;7.834;2022-10-22T10:48:28;5.53;;;2.42;;
58808;SDS011;44579;51.672;7.834;2022-10-22T10:53:41;8.80;;;2.08;;
58808;SDS011;44579;51.672;7.834;2022-10-22T10:56:34;9.15;;;1.75;;
58808;SDS011;44579;51.672;7.834;2022-10-22T11:01:55;10.75;;;2.08;;
58808;SDS011;44579;51.672;7.834;2022-10-22T11:07:19;3.92;;;1.35;;
58808;SDS011;44579;51.672;7.834;2022-10-22T11:10:18;8.27;;;1.67;;
58808;SDS011;44579;51.672;7.834;2022-10-22T11:13:41;6.15;;;1.88;;
58808;SDS011;44579;51.672;7.834;2022-10-22T11:16:36;2.75;;;1.50;;
58808;SDS011;44579;51.672;7.834;2022-10-22T11:19:14;8.18;;;2.05;;
58808;SDS011;44579;51.672;7.834;2022-10-22T11:22:08;7.82;;;1.92;;
58808;SDS011;44579;51.672;7.834;2022-10-22T11:25:00;10.73;;;2.00;;
58808;SDS011;44579;51.672;7.834;2022-10-22T11:27:50;10.20;;;1.90;;
58808;SDS011;44579;51.672;7.834;2022-10-22T11:30:34;5.43;;;1.83;;
58808;SDS011;44579;51.672;7.834;2022-10-22T11:33:12;5.88;;;1.45;;
58808;SDS011;44579;51.672;7.834;2022-10-22T11:35:46;16.90;;;1.95;;
58808;SDS011;44579;51.672;7.834;2022-10-22T11:38:16;11.43;;;1.63;;
58808;SDS011;44579;51.672;7.834;2022-10-22T11:43:34;9.52;;;4.05;;
58808;SDS011;44579;51.672;7.834;2022-10-22T11:46:24;9.40;;;1.30;;
58808;SDS011;44579;51.672;7.834;2022-10-22T11:51:38;10.43;;;1.13;;
58808;SDS011;44579;51.672;7.834;2022-10-22T11:57:16;3.33;;;1.00;;
58808;SDS011;44579;51.672;7.834;2022-10-22T11:59:59;6.22;;;1.15;;
58808;SDS011;44579;51.672;7.834;2022-10-22T12:02:41;3.38;;;1.02;;
58808;SDS011;44579;51.672;7.834;2022-10-22T12:05:18;3.92;;;1.02;;
58808;SDS011;44579;51.672;7.834;2022-10-22T12:08:14;8.63;;;1.10;;
58808;SDS011;44579;51.672;7.834;2022-10-22T12:11:05;1.75;;;1.02;;
58808;SDS011;44579;51.672;7.834;2022-10-22T12:17:31;12.95;;;3.88;;
58808;SDS011;44579;51.672;7.834;2022-10-22T12:22:17;5.38;;;1.13;;
58808;SDS011;44579;51.672;7.834;2022-10-22T12:24:53;7.78;;;0.80;;
58808;SDS011;44579;51.672;7.834;2022-10-22T12:27:24;2.28;;;0.70;;
58808;SDS011;44579;51.672;7.834;2022-10-22T12:29:54;7.03;;;0.95;;
58808;SDS011;44579;51.672;7.834;2022-10-22T12:32:23;1.60;;;0.50;;
58808;SDS011;44579;51.672;7.834;2022-10-22T12:35:07;7.47;;;0.90;;
58808;SDS011;44579;51.672;7.834;2022-10-22T12:37:40;4.80;;;1.08;;
58808;SDS011;44579;51.672;7.834;2022-10-22T12:45:21;2.55;;;0.60;;
58808;SDS011;44579;51.672;7.834;2022-10-22T12:48:07;3.75;;;1.05;;
58808;SDS011;44579;51.672;7.834;2022-10-22T12:50:46;4.93;;;0.90;;
58808;SDS011;44579;51.672;7.834;2022-10-22T12:53:27;8.20;;;1.10;;
58808;SDS011;44579;51.672;7.834;2022-10-22T12:56:04;3.70;;;1.10;;
58808;SDS011;44579;51.672;7.834;2022-10-22T12:58:47;6.80;;;1.30;;
58808;SDS011;44579;51.672;7.834;2022-10-22T13:01:18;1.38;;;0.68;;
58808;SDS011;44579;51.672;7.834;2022-10-22T13:03:49;3.70;;;1.00;;
58808;SDS011;44579;51.672;7.834;2022-10-22T13:06:32;5.63;;;1.33;;
58808;SDS011;44579;51.672;7.834;2022-10-22T13:09:22;4.97;;;1.00;;
58808;SDS011;44579;51.672;7.834;2022-10-22T13:12:02;2.28;;;0.82;;
58808;SDS011;44579;51.672;7.834;2022-10-22T13:14:32;4.43;;;0.70;;
58808;SDS011;44579;51.672;7.834;2022-10-22T13:17:05;7.90;;;1.27;;
58808;SDS011;44579;51.672;7.834;2022-10-22T13:19:42;0.98;;;0.45;;
58808;SDS011;44579;51.672;7.834;2022-10-22T13:22:33;1.90;;;0.65;;
58808;SDS011;44579;51.672;7.834;2022-10-22T13:25:26;7.63;;;0.90;;
58808;SDS011;44579;51.672;7.834;2022-10-22T13:27:53;1.25;;;0.40;;
58808;SDS011;44579;51.672;7.834;2022-10-22T13:32:56;4.55;;;1.25;;
58808;SDS011;44579;51.672;7.834;2022-10-22T13:35:31;1.92;;;0.52;;
58808;SDS011;44579;51.672;7.834;2022-10-22T13:38:01;6.85;;;1.05;;
58808;SDS011;44579;51.672;7.834;2022-10-22T13:40:29;5.15;;;0.70;;
58808;SDS011;44579;51.672;7.834;2022-10-22T13:42:59;5.22;;;0.90;;
58808;SDS011;44579;51.672;7.834;2022-10-22T13:45:26;5.65;;;0.80;;
58808;SDS011;44579;51.672;7.834;2022-10-22T13:47:54;1.63;;;1.02;;
58808;SDS011;44579;51.672;7.834;2022-10-22T13:50:21;1.60;;;0.52;;
58808;SDS011;44579;51.672;7.834;2022-10-22T13:52:53;3.20;;;1.20;;
58808;SDS011;44579;51.672;7.834;2022-10-22T13:55:28;4.47;;;0.77;;
58808;SDS011;44579;51.672;7.834;2022-10-22T13:57:57;6.22;;;0.73;;
58808;SDS011;44579;51.672;7.834;2022-10-22T14:00:29;6.25;;;0.70;;
58808;SDS011;44579;51.672;7.834;2022-10-22T14:02:58;3.50;;;0.77;;
58808;SDS011;44579;51.672;7.834;2022-10-22T14:05:25;2.30;;;0.65;;
58808;SDS011;44579;51.672;7.834;2022-10-22T14:07:53;4.43;;;0.75;;
58808;SDS011;44579;51.672;7.834;2022-10-22T14:12:49;4.20;;;0.88;;
58808;SDS011;44579;51.672;7.834;2022-10-22T14:15:20;2.45;;;0.65;;
58808;SDS011;44579;51.672;7.834;2022-10-22T14:17:56;3.75;;;0.93;;
58808;SDS011;44579;51.672;7.834;2022-10-22T14:20:28;3.10;;;0.82;;
58808;SDS011;44579;51.672;7.834;2022-10-22T14:23:00;0.40;;;0.40;;
58808;SDS011;44579;51.672;7.834;2022-10-22T14:25:38;3.10;;;0.90;;
58808;SDS011;44579;51.672;7.834;2022-10-22T14:28:07;4.68;;;1.23;;
58808;SDS011;44579;51.672;7.834;2022-10-22T14:30:39;4.70;;;1.80;;
58808;SDS011;44579;51.672;7.834;2022-10-22T14:33:12;3.33;;;0.75;;
58808;SDS011;44579;51.672;7.834;2022-10-22T14:35:49;2.13;;;0.80;;
58808;SDS011;44579;51.672;7.834;2022-10-22T14:38:16;5.40;;;1.13;;
58808;SDS011;44579;51.672;7.834;2022-10-22T14:40:44;1.70;;;0.90;;
58808;SDS011;44579;51.672;7.834;2022-10-22T14:43:20;4.60;;;0.93;;
58808;SDS011;44579;51.672;7.834;2022-10-22T14:45:52;3.35;;;1.15;;
58808;SDS011;44579;51.672;7.834;2022-10-22T14:48:20;6.15;;;1.35;;
58808;SDS011;44579;51.672;7.834;2022-10-22T14:50:49;4.38;;;0.80;;
58808;SDS011;44579;51.672;7.834;2022-10-22T14:53:19;4.40;;;0.82;;
58808;SDS011;44579;51.672;7.834;2022-10-22T14:55:47;1.17;;;0.85;;
58808;SDS011;44579;51.672;7.834;2022-10-22T14:58:17;3.90;;;0.70;;
58808;SDS011;44579;51.672;7.834;2022-10-22T15:00:45;2.00;;;0.80;;
58808;SDS011;44579;51.672;7.834;2022-10-22T15:03:13;7.63;;;0.85;;
58808;SDS011;44579;51.672;7.834;2022-10-22T15:05:43;9.07;;;1.17;;
58808;SDS011;44579;51.672;7.834;2022-10-22T15:10:39;4.38;;;0.70;;
58808;SDS011;44579;51.672;7.834;2022-10-22T15:13:08;4.50;;;0.88;;
58808;SDS011;44579;51.672;7.834;2022-10-22T15:15:38;1.77;;;0.60;;
58808;SDS011;44579;51.672;7.834;2022-10-22T15:18:07;1.52;;;0.70;;
58808;SDS011;44579;51.672;7.834;2022-10-22T15:20:34;5.30;;;0.85;;
58808;SDS011;44579;51.672;7.834;2022-10-22T15:23:05;11.73;;;1.00;;
58808;SDS011;44579;51.672;7.834;2022-10-22T15:25:32;6.20;;;1.20;;
58808;SDS011;44579;51.672;7.834;2022-10-22T15:28:00;4.65;;;1.38;;
58808;SDS011;44579;51.672;7.834;2022-10-22T15:30:35;3.30;;;1.40;;
58808;SDS011;44579;51.672;7.834;2022-10-22T15:33:03;9.50;;;1.40;;
58808;SDS011;44579;51.672;7.834;2022-10-22T15:35:30;6.70;;;1.00;;
58808;SDS011;44579;51.672;7.834;2022-10-22T15:38:01;2.35;;;0.88;;
58808;SDS011;44579;51.672;7.834;2022-10-22T15:40:35;10.98;;;1.35;;
58808;SDS011;44579;51.672;7.834;2022-10-22T15:43:05;4.35;;;1.00;;
58808;SDS011;44579;51.672;7.834;2022-10-22T15:45:33;3.70;;;0.90;;
58808;SDS011;44579;51.672;7.834;2022-10-22T15:48:01;3.58;;;1.00;;
58808;SDS011;44579;51.672;7.834;2022-10-22T15:50:31;1.23;;;0.68;;
58808;SDS011;44579;51.672;7.834;2022-10-22T15:53:03;4.43;;;0.90;;
58808;SDS011;44579;51.672;7.834;2022-10-22T15:55:34;4.97;;;1.30;;
58808;SDS011;44579;51.672;7.834;2022-10-22T15:58:02;3.88;;;1.10;;
58808;SDS011;44579;51.672;7.834;2022-10-22T16:00:31;3.83;;;1.17;;
58808;SDS011;44579;51.672;7.834;2022-10-22T16:03:00;6.68;;;1.17;;
58808;SDS011;44579;51.672;7.834;2022-10-22T16:05:29;4.07;;;1.38;;
58808;SDS011;44579;51.672;7.834;2022-10-22T16:07:56;8.05;;;1.30;;
58808;SDS011;44579;51.672;7.834;2022-10-22T16:10:23;3.60;;;1.13;;
58808;SDS011;44579;51.672;7.834;2022-10-22T16:12:54;7.70;;;1.63;;
58808;SDS011;44579;51.672;7.834;2022-10-22T16:15:22;8.38;;;1.40;;
58808;SDS011;44579;51.672;7.834;2022-10-22T16:17:50;2.08;;;1.20;;
58808;SDS011;44579;51.672;7.834;2022-10-22T16:20:21;10.63;;;1.20;;
58808;SDS011;44579;51.672;7.834;2022-10-22T16:22:48;2.85;;;1.17;;
58808;SDS011;44579;51.672;7.834;2022-10-22T16:25:15;4.03;;;1.38;;
58808;SDS011;44579;51.672;7.834;2022-10-22T16:27:43;5.60;;;1.40;;
58808;SDS011;44579;51.672;7.834;2022-10-22T16:30:14;3.17;;;1.40;;
58808;SDS011;44579;51.672;7.834;2022-10-22T16:32:41;5.53;;;1.35;;
58808;SDS011;44579;51.672;7.834;2022-10-22T16:37:35;4.05;;;1.40;;
58808;SDS011;44579;51.672;7.834;2022-10-22T16:40:03;3.38;;;1.40;;
58808;SDS011;44579;51.672;7.834;2022-10-22T16:42:34;9.88;;;1.27;;
58808;SDS011;44579;51.672;7.834;2022-10-22T16:45:01;3.65;;;1.45;;
58808;SDS011;44579;51.672;7.834;2022-10-22T16:49:56;3.08;;;1.75;;
58808;SDS011;44579;51.672;7.834;2022-10-22T16:52:26;3.03;;;1.33;;
58808;SDS011;44579;51.672;7.834;2022-10-22T16:54:53;6.97;;;1.65;;
58808;SDS011;44579;51.672;7.834;2022-10-22T16:57:20;8.05;;;1.75;;
58808;SDS011;44579;51.672;7.834;2022-10-22T16:59:47;4.95;;;1.98;;
58808;SDS011;44579;51.672;7.834;2022-10-22T17:02:14;4.22;;;1.95;;